Terminal Aerodrome Forecast
Issued by NWS

Home | Current Version | Previous Version | Graphics & Text | Print | Product List | Glossary Off
Versions: 1 2 3 4 5 6 7 8 9 10 11 12 13 14 15 16 17 18 19 20

625
FTUS43 KICT 132336
TAFRSL
TAF
KRSL 132336Z 1400/1424 14007KT P6SM SCT100 BKN200
     FM140800 21007KT P6SM SCT080 BKN120
     FM141100 28010KT P6SM SCT250
     FM141700 33014KT P6SM SCT250=

USA.gov is the U.S. government's official web portal to all federal, state and local government web resources and services.